sensor_id;sensor_type;location;lat;lon;timestamp;P1;durP1;ratioP1;P2;durP2;ratioP2
14892;SDS011;7538;53.626;9.906;2023-12-29T00:01:13;8.27;;;2.65;;
14892;SDS011;7538;53.626;9.906;2023-12-29T00:03:40;9.98;;;2.70;;
14892;SDS011;7538;53.626;9.906;2023-12-29T00:06:08;9.25;;;3.03;;
14892;SDS011;7538;53.626;9.906;2023-12-29T00:08:36;8.23;;;2.58;;
14892;SDS011;7538;53.626;9.906;2023-12-29T00:11:03;9.55;;;2.60;;
14892;SDS011;7538;53.626;9.906;2023-12-29T00:13:30;7.13;;;2.80;;
14892;SDS011;7538;53.626;9.906;2023-12-29T00:15:56;8.75;;;2.78;;
14892;SDS011;7538;53.626;9.906;2023-12-29T00:18:23;6.75;;;2.92;;
14892;SDS011;7538;53.626;9.906;2023-12-29T00:20:50;8.15;;;2.78;;
14892;SDS011;7538;53.626;9.906;2023-12-29T00:23:18;6.75;;;2.90;;
14892;SDS011;7538;53.626;9.906;2023-12-29T00:25:45;10.68;;;2.92;;
14892;SDS011;7538;53.626;9.906;2023-12-29T00:28:12;9.07;;;2.80;;
14892;SDS011;7538;53.626;9.906;2023-12-29T00:30:39;9.00;;;2.88;;
14892;SDS011;7538;53.626;9.906;2023-12-29T00:33:06;8.93;;;2.50;;
14892;SDS011;7538;53.626;9.906;2023-12-29T00:35:36;7.75;;;3.33;;
14892;SDS011;7538;53.626;9.906;2023-12-29T00:38:03;6.43;;;2.65;;
14892;SDS011;7538;53.626;9.906;2023-12-29T00:40:32;10.43;;;3.00;;
14892;SDS011;7538;53.626;9.906;2023-12-29T00:42:59;7.85;;;3.05;;
14892;SDS011;7538;53.626;9.906;2023-12-29T00:45:26;7.30;;;2.90;;
14892;SDS011;7538;53.626;9.906;2023-12-29T00:47:57;11.00;;;2.97;;
14892;SDS011;7538;53.626;9.906;2023-12-29T00:50:23;7.57;;;2.70;;
14892;SDS011;7538;53.626;9.906;2023-12-29T00:52:51;14.05;;;2.97;;
14892;SDS011;7538;53.626;9.906;2023-12-29T00:55:18;10.55;;;2.90;;
14892;SDS011;7538;53.626;9.906;2023-12-29T00:57:46;11.18;;;3.30;;
14892;SDS011;7538;53.626;9.906;2023-12-29T01:00:14;8.07;;;2.97;;
14892;SDS011;7538;53.626;9.906;2023-12-29T01:02:41;11.02;;;3.53;;
14892;SDS011;7538;53.626;9.906;2023-12-29T01:05:07;8.25;;;3.10;;
14892;SDS011;7538;53.626;9.906;2023-12-29T01:07:34;8.30;;;3.53;;
14892;SDS011;7538;53.626;9.906;2023-12-29T01:10:01;6.95;;;3.30;;
14892;SDS011;7538;53.626;9.906;2023-12-29T01:12:28;10.38;;;3.58;;
14892;SDS011;7538;53.626;9.906;2023-12-29T01:14:56;8.27;;;2.58;;
14892;SDS011;7538;53.626;9.906;2023-12-29T01:17:23;8.13;;;3.00;;
14892;SDS011;7538;53.626;9.906;2023-12-29T01:19:52;5.57;;;2.78;;
14892;SDS011;7538;53.626;9.906;2023-12-29T01:22:19;9.63;;;3.10;;
14892;SDS011;7538;53.626;9.906;2023-12-29T01:24:46;7.90;;;3.60;;
14892;SDS011;7538;53.626;9.906;2023-12-29T01:27:13;7.35;;;3.33;;
14892;SDS011;7538;53.626;9.906;2023-12-29T01:29:39;8.43;;;3.25;;
14892;SDS011;7538;53.626;9.906;2023-12-29T01:32:08;10.15;;;3.15;;
14892;SDS011;7538;53.626;9.906;2023-12-29T01:34:35;14.35;;;3.78;;
14892;SDS011;7538;53.626;9.906;2023-12-29T01:37:02;11.27;;;3.38;;
14892;SDS011;7538;53.626;9.906;2023-12-29T01:39:30;10.73;;;2.80;;
14892;SDS011;7538;53.626;9.906;2023-12-29T01:41:57;7.45;;;2.88;;
14892;SDS011;7538;53.626;9.906;2023-12-29T01:44:23;12.60;;;3.45;;
14892;SDS011;7538;53.626;9.906;2023-12-29T01:46:51;8.40;;;2.90;;
14892;SDS011;7538;53.626;9.906;2023-12-29T01:49:21;8.07;;;3.30;;
14892;SDS011;7538;53.626;9.906;2023-12-29T01:51:49;9.23;;;3.40;;
14892;SDS011;7538;53.626;9.906;2023-12-29T01:54:17;11.43;;;3.60;;
14892;SDS011;7538;53.626;9.906;2023-12-29T01:56:46;7.55;;;2.70;;
14892;SDS011;7538;53.626;9.906;2023-12-29T01:59:14;9.07;;;3.38;;
14892;SDS011;7538;53.626;9.906;2023-12-29T02:01:42;10.60;;;3.00;;
14892;SDS011;7538;53.626;9.906;2023-12-29T02:04:11;9.98;;;3.05;;
14892;SDS011;7538;53.626;9.906;2023-12-29T02:06:40;7.47;;;2.95;;
14892;SDS011;7538;53.626;9.906;2023-12-29T02:09:07;14.82;;;3.42;;
14892;SDS011;7538;53.626;9.906;2023-12-29T02:11:35;8.35;;;2.80;;
14892;SDS011;7538;53.626;9.906;2023-12-29T02:14:02;7.32;;;2.58;;
14892;SDS011;7538;53.626;9.906;2023-12-29T02:16:30;9.32;;;2.70;;
14892;SDS011;7538;53.626;9.906;2023-12-29T02:19:08;11.45;;;3.00;;
14892;SDS011;7538;53.626;9.906;2023-12-29T02:21:41;6.15;;;2.40;;
14892;SDS011;7538;53.626;9.906;2023-12-29T02:24:08;9.23;;;2.60;;
14892;SDS011;7538;53.626;9.906;2023-12-29T02:26:36;10.10;;;2.88;;
14892;SDS011;7538;53.626;9.906;2023-12-29T02:29:04;7.18;;;2.72;;
14892;SDS011;7538;53.626;9.906;2023-12-29T02:31:34;5.38;;;2.40;;
14892;SDS011;7538;53.626;9.906;2023-12-29T02:34:04;9.93;;;3.35;;
14892;SDS011;7538;53.626;9.906;2023-12-29T02:36:33;9.20;;;2.45;;
14892;SDS011;7538;53.626;9.906;2023-12-29T02:39:07;9.38;;;2.40;;
14892;SDS011;7538;53.626;9.906;2023-12-29T02:41:36;8.40;;;2.47;;
14892;SDS011;7538;53.626;9.906;2023-12-29T02:44:03;7.38;;;3.35;;
14892;SDS011;7538;53.626;9.906;2023-12-29T02:46:30;8.18;;;2.33;;
14892;SDS011;7538;53.626;9.906;2023-12-29T02:48:57;10.45;;;2.40;;
14892;SDS011;7538;53.626;9.906;2023-12-29T02:51:24;7.53;;;2.10;;
14892;SDS011;7538;53.626;9.906;2023-12-29T02:53:54;5.40;;;2.30;;
14892;SDS011;7538;53.626;9.906;2023-12-29T02:56:20;8.18;;;2.97;;
14892;SDS011;7538;53.626;9.906;2023-12-29T02:58:49;9.02;;;3.33;;
14892;SDS011;7538;53.626;9.906;2023-12-29T03:01:16;5.72;;;1.95;;
14892;SDS011;7538;53.626;9.906;2023-12-29T03:03:43;8.07;;;2.00;;
14892;SDS011;7538;53.626;9.906;2023-12-29T03:06:10;9.10;;;2.15;;
14892;SDS011;7538;53.626;9.906;2023-12-29T03:08:37;5.38;;;2.13;;
14892;SDS011;7538;53.626;9.906;2023-12-29T03:11:04;7.22;;;2.20;;
14892;SDS011;7538;53.626;9.906;2023-12-29T03:13:30;6.78;;;1.90;;
14892;SDS011;7538;53.626;9.906;2023-12-29T03:15:59;4.82;;;1.80;;
14892;SDS011;7538;53.626;9.906;2023-12-29T03:18:26;4.88;;;1.98;;
14892;SDS011;7538;53.626;9.906;2023-12-29T03:20:53;3.85;;;1.80;;
14892;SDS011;7538;53.626;9.906;2023-12-29T03:23:20;6.93;;;1.83;;
14892;SDS011;7538;53.626;9.906;2023-12-29T03:25:47;5.88;;;1.80;;
14892;SDS011;7538;53.626;9.906;2023-12-29T03:28:13;3.88;;;1.58;;
14892;SDS011;7538;53.626;9.906;2023-12-29T03:30:40;4.95;;;1.67;;
14892;SDS011;7538;53.626;9.906;2023-12-29T03:33:08;6.50;;;1.63;;
14892;SDS011;7538;53.626;9.906;2023-12-29T03:35:35;6.32;;;1.90;;
14892;SDS011;7538;53.626;9.906;2023-12-29T03:38:02;3.83;;;1.40;;
14892;SDS011;7538;53.626;9.906;2023-12-29T03:40:29;2.72;;;1.55;;
14892;SDS011;7538;53.626;9.906;2023-12-29T03:42:56;5.05;;;1.95;;
14892;SDS011;7538;53.626;9.906;2023-12-29T03:45:23;7.18;;;2.22;;
14892;SDS011;7538;53.626;9.906;2023-12-29T03:47:50;5.10;;;2.08;;
14892;SDS011;7538;53.626;9.906;2023-12-29T03:50:18;6.75;;;2.15;;
14892;SDS011;7538;53.626;9.906;2023-12-29T03:52:45;7.35;;;2.30;;
14892;SDS011;7538;53.626;9.906;2023-12-29T03:55:12;5.03;;;2.22;;
14892;SDS011;7538;53.626;9.906;2023-12-29T03:57:39;2.97;;;1.35;;
14892;SDS011;7538;53.626;9.906;2023-12-29T04:00:10;5.75;;;1.88;;
14892;SDS011;7538;53.626;9.906;2023-12-29T04:02:38;3.47;;;1.63;;
14892;SDS011;7538;53.626;9.906;2023-12-29T04:05:06;3.85;;;2.13;;
14892;SDS011;7538;53.626;9.906;2023-12-29T04:07:36;6.72;;;1.73;;
14892;SDS011;7538;53.626;9.906;2023-12-29T04:10:05;3.22;;;1.63;;
14892;SDS011;7538;53.626;9.906;2023-12-29T04:12:32;3.08;;;1.60;;
14892;SDS011;7538;53.626;9.906;2023-12-29T04:14:59;4.13;;;2.05;;
14892;SDS011;7538;53.626;9.906;2023-12-29T04:17:26;5.07;;;2.00;;
14892;SDS011;7538;53.626;9.906;2023-12-29T04:19:52;5.22;;;1.25;;
14892;SDS011;7538;53.626;9.906;2023-12-29T04:22:19;4.03;;;1.25;;
14892;SDS011;7538;53.626;9.906;2023-12-29T04:24:47;3.70;;;1.10;;
14892;SDS011;7538;53.626;9.906;2023-12-29T04:27:15;2.78;;;0.98;;
14892;SDS011;7538;53.626;9.906;2023-12-29T04:29:42;3.47;;;1.00;;
14892;SDS011;7538;53.626;9.906;2023-12-29T04:32:09;3.20;;;1.20;;
14892;SDS011;7538;53.626;9.906;2023-12-29T04:34:36;1.98;;;0.98;;
14892;SDS011;7538;53.626;9.906;2023-12-29T04:37:03;3.15;;;0.77;;
14892;SDS011;7538;53.626;9.906;2023-12-29T04:39:30;3.80;;;1.10;;
14892;SDS011;7538;53.626;9.906;2023-12-29T04:41:58;4.03;;;1.00;;
14892;SDS011;7538;53.626;9.906;2023-12-29T04:44:25;3.15;;;1.02;;
14892;SDS011;7538;53.626;9.906;2023-12-29T04:46:52;3.83;;;1.25;;
14892;SDS011;7538;53.626;9.906;2023-12-29T04:49:19;4.60;;;1.10;;
14892;SDS011;7538;53.626;9.906;2023-12-29T04:51:45;3.17;;;0.98;;
14892;SDS011;7538;53.626;9.906;2023-12-29T04:54:13;3.20;;;1.00;;
14892;SDS011;7538;53.626;9.906;2023-12-29T04:56:40;3.03;;;0.93;;
14892;SDS011;7538;53.626;9.906;2023-12-29T04:59:08;2.80;;;0.93;;
14892;SDS011;7538;53.626;9.906;2023-12-29T05:01:35;4.90;;;1.10;;
14892;SDS011;7538;53.626;9.906;2023-12-29T05:04:02;5.68;;;1.25;;
14892;SDS011;7538;53.626;9.906;2023-12-29T05:06:29;3.45;;;1.02;;
14892;SDS011;7538;53.626;9.906;2023-12-29T05:08:56;3.13;;;1.00;;
14892;SDS011;7538;53.626;9.906;2023-12-29T05:11:23;3.55;;;1.27;;
14892;SDS011;7538;53.626;9.906;2023-12-29T05:13:51;4.63;;;1.60;;
14892;SDS011;7538;53.626;9.906;2023-12-29T05:16:19;2.53;;;1.33;;
14892;SDS011;7538;53.626;9.906;2023-12-29T05:18:46;9.52;;;1.20;;
14892;SDS011;7538;53.626;9.906;2023-12-29T05:21:15;1.90;;;1.08;;
14892;SDS011;7538;53.626;9.906;2023-12-29T05:23:43;4.22;;;1.45;;
14892;SDS011;7538;53.626;9.906;2023-12-29T05:26:10;6.15;;;1.33;;
14892;SDS011;7538;53.626;9.906;2023-12-29T05:28:37;4.45;;;1.30;;
14892;SDS011;7538;53.626;9.906;2023-12-29T05:31:04;5.68;;;1.50;;
14892;SDS011;7538;53.626;9.906;2023-12-29T05:33:32;3.60;;;1.50;;
14892;SDS011;7538;53.626;9.906;2023-12-29T05:36:05;6.28;;;1.80;;
14892;SDS011;7538;53.626;9.906;2023-12-29T05:38:33;3.85;;;1.30;;
14892;SDS011;7538;53.626;9.906;2023-12-29T05:41:01;6.55;;;1.90;;
14892;SDS011;7538;53.626;9.906;2023-12-29T05:43:29;5.97;;;1.67;;
14892;SDS011;7538;53.626;9.906;2023-12-29T05:45:57;2.15;;;1.30;;
14892;SDS011;7538;53.626;9.906;2023-12-29T05:48:24;5.88;;;1.48;;
14892;SDS011;7538;53.626;9.906;2023-12-29T05:50:53;5.43;;;1.58;;
14892;SDS011;7538;53.626;9.906;2023-12-29T05:53:20;4.50;;;1.45;;
14892;SDS011;7538;53.626;9.906;2023-12-29T05:55:47;6.00;;;1.50;;
14892;SDS011;7538;53.626;9.906;2023-12-29T05:58:13;5.68;;;1.52;;
14892;SDS011;7538;53.626;9.906;2023-12-29T06:00:40;5.43;;;1.70;;
14892;SDS011;7538;53.626;9.906;2023-12-29T06:03:09;6.53;;;1.52;;
14892;SDS011;7538;53.626;9.906;2023-12-29T06:05:36;5.72;;;1.65;;
14892;SDS011;7538;53.626;9.906;2023-12-29T06:08:05;4.10;;;1.48;;
14892;SDS011;7538;53.626;9.906;2023-12-29T06:10:32;3.08;;;1.38;;
14892;SDS011;7538;53.626;9.906;2023-12-29T06:13:00;4.95;;;1.70;;
14892;SDS011;7538;53.626;9.906;2023-12-29T06:15:28;8.18;;;2.00;;
14892;SDS011;7538;53.626;9.906;2023-12-29T06:17:55;6.40;;;1.70;;
14892;SDS011;7538;53.626;9.906;2023-12-29T06:20:22;6.03;;;1.83;;
14892;SDS011;7538;53.626;9.906;2023-12-29T06:22:49;5.78;;;1.63;;
14892;SDS011;7538;53.626;9.906;2023-12-29T06:25:18;7.05;;;1.88;;
14892;SDS011;7538;53.626;9.906;2023-12-29T06:27:44;6.47;;;2.15;;
14892;SDS011;7538;53.626;9.906;2023-12-29T06:30:12;7.25;;;2.00;;
14892;SDS011;7538;53.626;9.906;2023-12-29T06:32:39;7.97;;;2.00;;
14892;SDS011;7538;53.626;9.906;2023-12-29T06:35:06;7.15;;;1.80;;
14892;SDS011;7538;53.626;9.906;2023-12-29T06:37:35;9.05;;;2.35;;
14892;SDS011;7538;53.626;9.906;2023-12-29T06:40:03;5.63;;;2.25;;
14892;SDS011;7538;53.626;9.906;2023-12-29T06:42:32;6.25;;;2.22;;
14892;SDS011;7538;53.626;9.906;2023-12-29T06:44:59;5.38;;;2.05;;
14892;SDS011;7538;53.626;9.906;2023-12-29T06:47:26;6.30;;;2.33;;
14892;SDS011;7538;53.626;9.906;2023-12-29T06:49:53;6.90;;;2.30;;
14892;SDS011;7538;53.626;9.906;2023-12-29T06:52:20;7.85;;;2.40;;
14892;SDS011;7538;53.626;9.906;2023-12-29T06:54:47;8.97;;;2.20;;
14892;SDS011;7538;53.626;9.906;2023-12-29T06:57:14;10.25;;;2.53;;
14892;SDS011;7538;53.626;9.906;2023-12-29T06:59:43;6.82;;;2.47;;
14892;SDS011;7538;53.626;9.906;2023-12-29T07:02:10;11.10;;;2.47;;
14892;SDS011;7538;53.626;9.906;2023-12-29T07:04:37;15.27;;;3.30;;
14892;SDS011;7538;53.626;9.906;2023-12-29T07:07:07;7.97;;;2.00;;
14892;SDS011;7538;53.626;9.906;2023-12-29T07:09:37;9.90;;;2.35;;
14892;SDS011;7538;53.626;9.906;2023-12-29T07:12:04;10.40;;;2.63;;
14892;SDS011;7538;53.626;9.906;2023-12-29T07:14:32;16.05;;;2.92;;
14892;SDS011;7538;53.626;9.906;2023-12-29T07:17:00;10.10;;;2.58;;
14892;SDS011;7538;53.626;9.906;2023-12-29T07:19:27;10.48;;;2.67;;
14892;SDS011;7538;53.626;9.906;2023-12-29T07:22:01;10.60;;;2.85;;
14892;SDS011;7538;53.626;9.906;2023-12-29T07:24:28;12.60;;;3.03;;
14892;SDS011;7538;53.626;9.906;2023-12-29T07:26:56;9.20;;;3.00;;
14892;SDS011;7538;53.626;9.906;2023-12-29T07:29:23;9.63;;;2.63;;
14892;SDS011;7538;53.626;9.906;2023-12-29T07:31:50;13.25;;;2.90;;
14892;SDS011;7538;53.626;9.906;2023-12-29T07:34:18;8.32;;;2.58;;
14892;SDS011;7538;53.626;9.906;2023-12-29T07:36:45;9.43;;;2.72;;
14892;SDS011;7538;53.626;9.906;2023-12-29T07:39:12;11.77;;;3.13;;
14892;SDS011;7538;53.626;9.906;2023-12-29T07:41:40;10.75;;;2.80;;
14892;SDS011;7538;53.626;9.906;2023-12-29T07:44:07;8.85;;;2.53;;
14892;SDS011;7538;53.626;9.906;2023-12-29T07:46:35;13.25;;;2.80;;
14892;SDS011;7538;53.626;9.906;2023-12-29T07:49:02;11.32;;;3.13;;
14892;SDS011;7538;53.626;9.906;2023-12-29T07:51:30;11.63;;;3.03;;
14892;SDS011;7538;53.626;9.906;2023-12-29T07:53:57;9.20;;;2.60;;
14892;SDS011;7538;53.626;9.906;2023-12-29T07:56:24;11.32;;;3.17;;
14892;SDS011;7538;53.626;9.906;2023-12-29T07:58:52;10.90;;;2.70;;
14892;SDS011;7538;53.626;9.906;2023-12-29T08:01:19;10.48;;;2.30;;
14892;SDS011;7538;53.626;9.906;2023-12-29T08:03:46;13.25;;;3.03;;
14892;SDS011;7538;53.626;9.906;2023-12-29T08:06:13;12.02;;;3.28;;
14892;SDS011;7538;53.626;9.906;2023-12-29T08:08:42;8.95;;;3.08;;
14892;SDS011;7538;53.626;9.906;2023-12-29T08:11:12;9.38;;;3.47;;
14892;SDS011;7538;53.626;9.906;2023-12-29T08:13:40;13.30;;;3.17;;
14892;SDS011;7538;53.626;9.906;2023-12-29T08:16:07;12.23;;;3.20;;
14892;SDS011;7538;53.626;9.906;2023-12-29T08:18:34;16.33;;;3.78;;
14892;SDS011;7538;53.626;9.906;2023-12-29T08:21:01;18.08;;;3.20;;
14892;SDS011;7538;53.626;9.906;2023-12-29T08:23:28;14.60;;;3.58;;
14892;SDS011;7538;53.626;9.906;2023-12-29T08:25:57;9.65;;;3.05;;
14892;SDS011;7538;53.626;9.906;2023-12-29T08:28:25;8.60;;;2.63;;
14892;SDS011;7538;53.626;9.906;2023-12-29T08:30:52;6.97;;;2.45;;
14892;SDS011;7538;53.626;9.906;2023-12-29T08:33:19;11.57;;;2.83;;
14892;SDS011;7538;53.626;9.906;2023-12-29T08:35:46;16.58;;;3.38;;
14892;SDS011;7538;53.626;9.906;2023-12-29T08:38:13;9.88;;;3.08;;
14892;SDS011;7538;53.626;9.906;2023-12-29T08:40:40;12.85;;;3.42;;
14892;SDS011;7538;53.626;9.906;2023-12-29T08:43:09;10.93;;;2.50;;
14892;SDS011;7538;53.626;9.906;2023-12-29T08:45:36;10.27;;;3.20;;
14892;SDS011;7538;53.626;9.906;2023-12-29T08:48:04;11.35;;;2.95;;
14892;SDS011;7538;53.626;9.906;2023-12-29T08:50:31;7.72;;;2.60;;
14892;SDS011;7538;53.626;9.906;2023-12-29T08:52:58;9.82;;;2.70;;
14892;SDS011;7538;53.626;9.906;2023-12-29T08:55:25;7.32;;;2.53;;
14892;SDS011;7538;53.626;9.906;2023-12-29T08:57:52;5.80;;;2.13;;
14892;SDS011;7538;53.626;9.906;2023-12-29T09:00:21;5.35;;;2.10;;
14892;SDS011;7538;53.626;9.906;2023-12-29T09:02:48;7.35;;;2.30;;
14892;SDS011;7538;53.626;9.906;2023-12-29T09:05:15;7.00;;;1.98;;
14892;SDS011;7538;53.626;9.906;2023-12-29T09:07:42;5.63;;;1.73;;
14892;SDS011;7538;53.626;9.906;2023-12-29T09:10:09;7.60;;;2.30;;
14892;SDS011;7538;53.626;9.906;2023-12-29T09:12:38;5.70;;;2.08;;
14892;SDS011;7538;53.626;9.906;2023-12-29T09:15:05;6.25;;;2.20;;
14892;SDS011;7538;53.626;9.906;2023-12-29T09:17:34;5.78;;;1.83;;
14892;SDS011;7538;53.626;9.906;2023-12-29T09:20:01;8.57;;;1.88;;
14892;SDS011;7538;53.626;9.906;2023-12-29T09:22:29;2.67;;;1.17;;
14892;SDS011;7538;53.626;9.906;2023-12-29T09:24:56;3.30;;;1.10;;
14892;SDS011;7538;53.626;9.906;2023-12-29T09:27:22;4.28;;;1.20;;
14892;SDS011;7538;53.626;9.906;2023-12-29T09:29:50;5.90;;;1.15;;
14892;SDS011;7538;53.626;9.906;2023-12-29T09:32:18;6.18;;;1.40;;
14892;SDS011;7538;53.626;9.906;2023-12-29T09:34:47;4.22;;;1.40;;
14892;SDS011;7538;53.626;9.906;2023-12-29T09:37:14;5.32;;;1.70;;
14892;SDS011;7538;53.626;9.906;2023-12-29T09:39:41;3.60;;;1.85;;
14892;SDS011;7538;53.626;9.906;2023-12-29T09:42:08;3.70;;;1.33;;
14892;SDS011;7538;53.626;9.906;2023-12-29T09:44:45;5.15;;;1.90;;
14892;SDS011;7538;53.626;9.906;2023-12-29T09:47:15;7.55;;;1.65;;
14892;SDS011;7538;53.626;9.906;2023-12-29T09:49:49;8.32;;;2.30;;
14892;SDS011;7538;53.626;9.906;2023-12-29T09:52:17;6.88;;;2.50;;
14892;SDS011;7538;53.626;9.906;2023-12-29T09:54:46;7.18;;;2.28;;
14892;SDS011;7538;53.626;9.906;2023-12-29T09:57:14;5.63;;;2.00;;
14892;SDS011;7538;53.626;9.906;2023-12-29T09:59:41;11.48;;;2.60;;
14892;SDS011;7538;53.626;9.906;2023-12-29T10:02:11;11.27;;;2.50;;
14892;SDS011;7538;53.626;9.906;2023-12-29T10:04:41;13.90;;;2.47;;
14892;SDS011;7538;53.626;9.906;2023-12-29T10:07:10;6.72;;;2.28;;
14892;SDS011;7538;53.626;9.906;2023-12-29T10:09:44;6.18;;;2.22;;
14892;SDS011;7538;53.626;9.906;2023-12-29T10:12:13;6.28;;;2.25;;
14892;SDS011;7538;53.626;9.906;2023-12-29T10:14:46;7.07;;;2.45;;
14892;SDS011;7538;53.626;9.906;2023-12-29T10:17:19;8.43;;;2.38;;
14892;SDS011;7538;53.626;9.906;2023-12-29T10:19:56;8.35;;;2.53;;
14892;SDS011;7538;53.626;9.906;2023-12-29T10:22:33;8.27;;;2.22;;
14892;SDS011;7538;53.626;9.906;2023-12-29T10:25:07;8.18;;;2.97;;
14892;SDS011;7538;53.626;9.906;2023-12-29T10:27:35;8.43;;;2.97;;
14892;SDS011;7538;53.626;9.906;2023-12-29T10:30:02;9.25;;;3.00;;
14892;SDS011;7538;53.626;9.906;2023-12-29T10:32:30;13.85;;;3.17;;
14892;SDS011;7538;53.626;9.906;2023-12-29T10:35:07;7.40;;;2.22;;
14892;SDS011;7538;53.626;9.906;2023-12-29T10:37:36;10.02;;;2.78;;
14892;SDS011;7538;53.626;9.906;2023-12-29T10:40:04;12.63;;;3.03;;
14892;SDS011;7538;53.626;9.906;2023-12-29T10:42:32;10.32;;;2.63;;
14892;SDS011;7538;53.626;9.906;2023-12-29T10:45:05;8.23;;;2.50;;
14892;SDS011;7538;53.626;9.906;2023-12-29T10:47:33;9.30;;;2.90;;
14892;SDS011;7538;53.626;9.906;2023-12-29T10:50:01;6.75;;;2.55;;
14892;SDS011;7538;53.626;9.906;2023-12-29T10:52:30;9.85;;;3.03;;
14892;SDS011;7538;53.626;9.906;2023-12-29T10:55:07;10.18;;;3.10;;
14892;SDS011;7538;53.626;9.906;2023-12-29T10:57:35;12.82;;;3.10;;
14892;SDS011;7538;53.626;9.906;2023-12-29T11:00:02;9.55;;;2.40;;
14892;SDS011;7538;53.626;9.906;2023-12-29T11:02:30;10.85;;;3.08;;
14892;SDS011;7538;53.626;9.906;2023-12-29T11:05:05;12.48;;;2.80;;
14892;SDS011;7538;53.626;9.906;2023-12-29T11:07:36;10.02;;;2.58;;
14892;SDS011;7538;53.626;9.906;2023-12-29T11:10:06;8.48;;;3.03;;
14892;SDS011;7538;53.626;9.906;2023-12-29T11:12:34;7.82;;;2.38;;
14892;SDS011;7538;53.626;9.906;2023-12-29T11:15:02;9.57;;;2.78;;
14892;SDS011;7538;53.626;9.906;2023-12-29T11:17:30;7.63;;;2.67;;
14892;SDS011;7538;53.626;9.906;2023-12-29T11:20:02;9.40;;;2.67;;
14892;SDS011;7538;53.626;9.906;2023-12-29T11:22:30;8.57;;;3.00;;
14892;SDS011;7538;53.626;9.906;2023-12-29T11:24:59;14.38;;;3.22;;
14892;SDS011;7538;53.626;9.906;2023-12-29T11:27:28;10.70;;;2.67;;
14892;SDS011;7538;53.626;9.906;2023-12-29T11:29:56;8.90;;;2.70;;
14892;SDS011;7538;53.626;9.906;2023-12-29T11:32:27;10.63;;;2.50;;
14892;SDS011;7538;53.626;9.906;2023-12-29T11:35:11;13.07;;;3.13;;
14892;SDS011;7538;53.626;9.906;2023-12-29T11:40:36;8.05;;;2.67;;
14892;SDS011;7538;53.626;9.906;2023-12-29T11:43:09;10.75;;;2.90;;
14892;SDS011;7538;53.626;9.906;2023-12-29T11:45:41;11.38;;;2.75;;
14892;SDS011;7538;53.626;9.906;2023-12-29T11:48:09;10.93;;;2.80;;
14892;SDS011;7538;53.626;9.906;2023-12-29T11:50:37;9.05;;;2.15;;
14892;SDS011;7538;53.626;9.906;2023-12-29T11:53:06;7.63;;;2.10;;
14892;SDS011;7538;53.626;9.906;2023-12-29T11:55:34;6.60;;;2.38;;
14892;SDS011;7538;53.626;9.906;2023-12-29T11:58:02;8.75;;;2.20;;
14892;SDS011;7538;53.626;9.906;2023-12-29T12:00:44;7.88;;;2.67;;
14892;SDS011;7538;53.626;9.906;2023-12-29T12:03:18;6.75;;;2.05;;
14892;SDS011;7538;53.626;9.906;2023-12-29T12:05:51;9.77;;;2.80;;
14892;SDS011;7538;53.626;9.906;2023-12-29T12:08:26;7.13;;;2.33;;
14892;SDS011;7538;53.626;9.906;2023-12-29T12:10:53;8.60;;;2.58;;
14892;SDS011;7538;53.626;9.906;2023-12-29T12:13:41;7.28;;;2.20;;
14892;SDS011;7538;53.626;9.906;2023-12-29T12:16:10;7.68;;;2.53;;
14892;SDS011;7538;53.626;9.906;2023-12-29T12:19:19;8.77;;;2.50;;
14892;SDS011;7538;53.626;9.906;2023-12-29T12:21:49;8.73;;;2.45;;
14892;SDS011;7538;53.626;9.906;2023-12-29T12:24:19;5.70;;;2.17;;
14892;SDS011;7538;53.626;9.906;2023-12-29T12:26:46;7.55;;;2.58;;
14892;SDS011;7538;53.626;9.906;2023-12-29T12:29:14;4.20;;;1.77;;
14892;SDS011;7538;53.626;9.906;2023-12-29T12:31:53;6.95;;;2.15;;
14892;SDS011;7538;53.626;9.906;2023-12-29T12:34:20;8.38;;;2.10;;
14892;SDS011;7538;53.626;9.906;2023-12-29T12:36:48;9.27;;;2.60;;
14892;SDS011;7538;53.626;9.906;2023-12-29T12:39:15;13.77;;;2.72;;
14892;SDS011;7538;53.626;9.906;2023-12-29T12:41:43;12.90;;;3.42;;
14892;SDS011;7538;53.626;9.906;2023-12-29T12:44:10;9.55;;;3.17;;
14892;SDS011;7538;53.626;9.906;2023-12-29T12:46:39;10.05;;;2.50;;
14892;SDS011;7538;53.626;9.906;2023-12-29T12:49:12;7.45;;;2.35;;
14892;SDS011;7538;53.626;9.906;2023-12-29T12:51:39;7.60;;;2.30;;
14892;SDS011;7538;53.626;9.906;2023-12-29T12:54:07;6.03;;;2.40;;
14892;SDS011;7538;53.626;9.906;2023-12-29T12:56:34;7.55;;;2.38;;
14892;SDS011;7538;53.626;9.906;2023-12-29T12:59:02;7.43;;;2.65;;
14892;SDS011;7538;53.626;9.906;2023-12-29T13:01:29;8.15;;;2.22;;
14892;SDS011;7538;53.626;9.906;2023-12-29T13:03:56;9.10;;;2.33;;
14892;SDS011;7538;53.626;9.906;2023-12-29T13:06:26;7.03;;;2.13;;
14892;SDS011;7538;53.626;9.906;2023-12-29T13:08:53;5.82;;;2.17;;
14892;SDS011;7538;53.626;9.906;2023-12-29T13:11:20;5.93;;;1.88;;
14892;SDS011;7538;53.626;9.906;2023-12-29T13:13:50;6.47;;;2.58;;
14892;SDS011;7538;53.626;9.906;2023-12-29T13:16:28;7.43;;;2.20;;
14892;SDS011;7538;53.626;9.906;2023-12-29T13:18:55;8.80;;;1.95;;
14892;SDS011;7538;53.626;9.906;2023-12-29T13:21:22;4.35;;;1.65;;
14892;SDS011;7538;53.626;9.906;2023-12-29T13:23:51;8.40;;;2.22;;
14892;SDS011;7538;53.626;9.906;2023-12-29T13:26:20;7.85;;;2.10;;
14892;SDS011;7538;53.626;9.906;2023-12-29T13:28:48;5.63;;;2.03;;
14892;SDS011;7538;53.626;9.906;2023-12-29T13:31:15;6.13;;;2.03;;
14892;SDS011;7538;53.626;9.906;2023-12-29T13:33:44;11.88;;;2.10;;
14892;SDS011;7538;53.626;9.906;2023-12-29T13:36:20;7.70;;;2.03;;
14892;SDS011;7538;53.626;9.906;2023-12-29T13:38:55;10.35;;;2.58;;
14892;SDS011;7538;53.626;9.906;2023-12-29T13:41:25;9.77;;;2.42;;
14892;SDS011;7538;53.626;9.906;2023-12-29T13:43:53;8.40;;;2.45;;
14892;SDS011;7538;53.626;9.906;2023-12-29T13:46:22;5.35;;;1.90;;
14892;SDS011;7538;53.626;9.906;2023-12-29T13:48:49;13.02;;;2.50;;
14892;SDS011;7538;53.626;9.906;2023-12-29T13:51:38;8.02;;;2.90;;
14892;SDS011;7538;53.626;9.906;2023-12-29T13:54:18;10.38;;;2.50;;
14892;SDS011;7538;53.626;9.906;2023-12-29T13:56:53;8.85;;;3.08;;
14892;SDS011;7538;53.626;9.906;2023-12-29T13:59:28;8.93;;;2.75;;
14892;SDS011;7538;53.626;9.906;2023-12-29T14:01:58;5.57;;;1.90;;
14892;SDS011;7538;53.626;9.906;2023-12-29T14:04:25;5.93;;;2.22;;
14892;SDS011;7538;53.626;9.906;2023-12-29T14:06:53;7.57;;;2.30;;
14892;SDS011;7538;53.626;9.906;2023-12-29T14:09:26;7.40;;;2.55;;
14892;SDS011;7538;53.626;9.906;2023-12-29T14:11:53;8.82;;;2.75;;
14892;SDS011;7538;53.626;9.906;2023-12-29T14:14:21;8.90;;;2.90;;
14892;SDS011;7538;53.626;9.906;2023-12-29T14:16:49;4.22;;;1.92;;
14892;SDS011;7538;53.626;9.906;2023-12-29T14:19:17;9.18;;;2.67;;
14892;SDS011;7538;53.626;9.906;2023-12-29T14:21:44;11.07;;;3.08;;
14892;SDS011;7538;53.626;9.906;2023-12-29T14:24:15;7.05;;;2.72;;
14892;SDS011;7538;53.626;9.906;2023-12-29T14:27:14;8.07;;;2.70;;
14892;SDS011;7538;53.626;9.906;2023-12-29T14:29:42;6.45;;;2.13;;
14892;SDS011;7538;53.626;9.906;2023-12-29T14:32:09;9.85;;;2.85;;
14892;SDS011;7538;53.626;9.906;2023-12-29T14:34:36;10.55;;;2.83;;
14892;SDS011;7538;53.626;9.906;2023-12-29T14:37:04;9.63;;;3.17;;
14892;SDS011;7538;53.626;9.906;2023-12-29T14:39:31;9.50;;;2.67;;
14892;SDS011;7538;53.626;9.906;2023-12-29T14:41:58;8.05;;;2.45;;
14892;SDS011;7538;53.626;9.906;2023-12-29T14:44:27;12.43;;;2.75;;
14892;SDS011;7538;53.626;9.906;2023-12-29T14:46:53;11.90;;;2.95;;
14892;SDS011;7538;53.626;9.906;2023-12-29T14:49:21;8.38;;;2.53;;
14892;SDS011;7538;53.626;9.906;2023-12-29T14:54:17;9.13;;;2.53;;
14892;SDS011;7538;53.626;9.906;2023-12-29T14:56:44;8.13;;;2.40;;
14892;SDS011;7538;53.626;9.906;2023-12-29T14:59:11;8.27;;;2.50;;
14892;SDS011;7538;53.626;9.906;2023-12-29T15:01:40;7.55;;;2.42;;
14892;SDS011;7538;53.626;9.906;2023-12-29T15:04:09;9.25;;;2.35;;
14892;SDS011;7538;53.626;9.906;2023-12-29T15:06:37;11.90;;;2.67;;
14892;SDS011;7538;53.626;9.906;2023-12-29T15:09:04;8.98;;;2.72;;
14892;SDS011;7538;53.626;9.906;2023-12-29T15:11:32;7.80;;;2.50;;